Time;durP1;ratioP1;P1;durP2;ratioP2;P2;SDS_P1;SDS_P2;PMS_P1;PMS_P2;Temp;Humidity;BMP_temperature;BMP_pressure;BME280_temperature;BME280_humidity;BME280_pressure;Samples;Min_cycle;Max_cycle;Signal;HPM_P1;HPM_P2
2022/06/01 00:00:32;;;;;;;2.08;1.60;;;;;;;11.28;93.42;95685.78;5032691;28;24444;-75
2022/06/01 00:03:00;;;;;;;2.22;1.67;;;;;;;11.19;94.99;95690.75;5032539;28;24975;-75
2022/06/01 00:05:27;;;;;;;3.45;2.20;;;;;;;11.29;94.06;95681.44;5031944;28;24984;-75
2022/06/01 00:07:53;;;;;;;3.15;2.00;;;;;;;11.36;92.94;95683.50;5032195;28;24818;-75
2022/06/01 00:10:20;;;;;;;4.80;1.60;;;;;;;11.18;92.43;95683.91;5032596;28;24794;-74
2022/06/01 00:12:47;;;;;;;2.50;1.60;;;;;;;11.18;93.64;95679.56;5032590;28;24840;-74
2022/06/01 00:15:15;;;;;;;2.88;1.67;;;;;;;11.21;91.78;95679.34;5031743;28;24438;-74
2022/06/01 00:17:42;;;;;;;2.33;1.58;;;;;;;11.17;92.39;95688.28;5031943;28;24482;-75
2022/06/01 00:20:11;;;;;;;2.85;1.70;;;;;;;11.15;91.62;95680.56;5031999;28;24436;-75
2022/06/01 00:22:38;;;;;;;3.10;1.75;;;;;;;11.22;89.63;95668.03;5032199;28;24439;-74
2022/06/01 00:25:07;;;;;;;8.07;2.08;;;;;;;11.03;91.55;95676.22;5031827;28;24506;-74
2022/06/01 00:27:33;;;;;;;2.17;1.80;;;;;;;10.72;96.64;95674.81;5031611;28;24494;-75
2022/06/01 00:30:00;;;;;;;4.35;1.75;;;;;;;10.66;96.98;95675.19;5031982;28;24432;-75
2022/06/01 00:32:28;;;;;;;2.65;1.77;;;;;;;10.71;97.07;95683.50;5032103;28;24850;-74
2022/06/01 00:34:54;;;;;;;3.63;1.87;;;;;;;10.70;97.05;95683.59;5031823;28;24443;-75
2022/06/01 00:37:22;;;;;;;2.50;1.75;;;;;;;10.83;96.84;95689.66;5031709;28;24440;-75
2022/06/01 00:39:49;;;;;;;1.65;1.55;;;;;;;10.94;95.37;95694.13;5031705;28;24498;-74
2022/06/01 00:42:17;;;;;;;2.90;1.98;;;;;;;10.99;94.22;95694.66;5032114;28;24865;-75
2022/06/01 00:44:44;;;;;;;3.03;1.85;;;;;;;10.94;94.54;95689.78;5031352;28;24442;-75
2022/06/01 00:47:11;;;;;;;2.87;1.80;;;;;;;10.88;95.20;95685.00;5031885;28;24576;-75
2022/06/01 00:49:42;;;;;;;2.53;2.00;;;;;;;10.72;96.50;95677.41;5031715;28;24436;-75
2022/06/01 00:52:09;;;;;;;3.95;1.92;;;;;;;10.69;96.83;95674.19;5031723;28;24440;-75
2022/06/01 00:54:37;;;;;;;2.10;1.90;;;;;;;10.61;98.01;95680.69;5031107;28;24443;-75
2022/06/01 00:57:08;;;;;;;2.58;1.73;;;;;;;10.71;97.74;95677.47;5031283;28;24435;-75
2022/06/01 00:59:39;;;;;;;2.70;2.10;;;;;;;10.76;97.04;95676.25;5031401;28;24481;-74
2022/06/01 01:02:07;;;;;;;2.67;1.58;;;;;;;10.79;96.40;95678.66;5031638;28;24458;-75
2022/06/01 01:04:36;;;;;;;2.53;2.00;;;;;;;10.64;97.71;95667.53;5031101;28;24478;-74
2022/06/01 01:07:06;;;;;;;2.77;1.90;;;;;;;10.62;97.96;95676.31;5030903;28;25271;-75
2022/06/01 01:09:34;;;;;;;3.20;1.98;;;;;;;10.64;97.51;95669.28;5031312;28;24802;-74
2022/06/01 01:12:06;;;;;;;5.20;1.67;;;;;;;10.60;97.07;95671.22;5031170;28;24440;-75
2022/06/01 01:14:36;;;;;;;4.25;2.00;;;;;;;10.61;96.16;95669.50;5031052;28;24539;-75
2022/06/01 01:17:04;;;;;;;2.78;1.70;;;;;;;10.52;97.61;95670.91;5030835;28;24983;-75
2022/06/01 01:19:35;;;;;;;1.97;1.63;;;;;;;10.49;98.01;95676.25;5031206;28;24435;-75
2022/06/01 01:22:12;;;;;;;3.07;1.70;;;;;;;10.55;96.76;95675.06;5031285;28;24424;-75
2022/06/01 01:24:49;;;;;;;2.45;1.80;;;;;;;10.53;96.24;95672.56;5030844;28;24415;-75
2022/06/01 01:27:17;;;;;;;2.45;1.77;;;;;;;10.53;94.72;95661.34;5030735;28;24451;-75
2022/06/01 01:29:45;;;;;;;3.35;2.10;;;;;;;10.29;98.85;95659.41;5030961;28;24864;-74
2022/06/01 01:32:14;;;;;;;3.20;2.00;;;;;;;10.20;98.72;95662.56;5030977;28;24472;-74
2022/06/01 01:34:42;;;;;;;3.17;2.10;;;;;;;10.23;100.00;95664.94;5030641;28;24493;-75
2022/06/01 01:37:14;;;;;;;3.88;2.10;;;;;;;10.25;100.00;95664.88;5030544;28;24444;-75
2022/06/01 01:39:41;;;;;;;5.25;2.58;;;;;;;10.05;100.00;95671.25;5030946;28;24535;-75
2022/06/01 01:42:07;;;;;;;2.65;2.20;;;;;;;10.05;100.00;95671.25;5030811;28;24671;-75
2022/06/01 01:44:41;;;;;;;2.20;2.00;;;;;;;10.18;97.18;95669.59;5030533;28;24800;-75
2022/06/01 01:47:08;;;;;;;3.27;1.97;;;;;;;10.08;97.81;95671.09;5030714;28;24510;-74
2022/06/01 01:49:38;;;;;;;2.30;2.00;;;;;;;9.81;100.00;95668.44;5031089;28;24422;-75
2022/06/01 01:52:08;;;;;;;2.20;2.00;;;;;;;9.73;100.00;95665.50;5031146;28;24424;-74
2022/06/01 01:54:45;;;;;;;3.85;2.42;;;;;;;9.78;100.00;95672.06;5030776;28;24474;-74
2022/06/01 01:57:22;;;;;;;2.80;2.10;;;;;;;9.67;100.00;95666.69;5030545;28;24599;-74
2022/06/01 02:00:04;;;;;;;3.17;1.95;;;;;;;9.76;100.00;95667.91;5030667;28;24519;-73
2022/06/01 02:02:39;;;;;;;3.53;2.38;;;;;;;9.79;100.00;95675.47;5030690;28;24432;-75
2022/06/01 02:08:04;;;;;;;3.50;2.20;;;;;;;9.92;97.64;95681.56;5030499;28;24454;-74
2022/06/01 02:13:17;;;;;;;2.70;1.90;;;;;;;9.55;98.39;95676.03;5035346;28;24439;-73
2022/06/01 02:15:48;;;;;;;3.95;2.10;;;;;;;9.35;100.00;95666.91;5037135;28;24431;-73
2022/06/01 02:18:20;;;;;;;2.05;1.73;;;;;;;9.35;100.00;95669.47;5036949;28;24473;-74
2022/06/01 02:20:50;;;;;;;3.03;1.80;;;;;;;9.42;100.00;95667.38;5037339;28;24420;-73
2022/06/01 02:23:17;;;;;;;2.75;1.70;;;;;;;9.46;100.00;95663.69;5037007;28;24945;-74
2022/06/01 02:25:48;;;;;;;2.13;1.75;;;;;;;9.50;100.00;95659.97;5037046;28;24431;-76
2022/06/01 02:28:15;;;;;;;2.15;1.60;;;;;;;9.56;100.00;95657.00;5035905;28;24460;-74
2022/06/01 02:30:45;;;;;;;2.63;1.90;;;;;;;9.65;100.00;95665.97;5037203;28;24423;-74
2022/06/01 02:33:16;;;;;;;1.52;1.40;;;;;;;9.77;100.00;95665.22;5037206;28;24462;-75
2022/06/01 02:35:46;;;;;;;2.40;1.80;;;;;;;9.79;100.00;95662.53;5037022;28;24995;-74
2022/06/01 02:38:17;;;;;;;2.05;1.70;;;;;;;9.80;99.03;95666.81;5036759;28;24976;-74
2022/06/01 02:40:44;;;;;;;1.67;1.42;;;;;;;9.69;97.72;95659.69;5037200;28;24451;-74
2022/06/01 02:43:10;;;;;;;3.80;2.20;;;;;;;9.54;96.02;95666.63;5036824;28;24432;-74
2022/06/01 02:45:38;;;;;;;1.88;1.60;;;;;;;9.34;99.53;95666.97;5036644;28;24427;-74
2022/06/01 02:48:06;;;;;;;2.90;2.00;;;;;;;9.39;98.32;95654.63;5036233;28;24467;-74
2022/06/01 02:50:35;;;;;;;3.60;1.92;;;;;;;9.21;100.00;95661.72;5036730;28;24415;-74
2022/06/01 02:53:02;;;;;;;2.08;1.77;;;;;;;9.14;100.00;95663.00;5036922;28;24427;-74
2022/06/01 02:55:31;;;;;;;3.38;2.10;;;;;;;9.15;100.00;95659.47;5036337;28;25003;-74
2022/06/01 02:57:58;;;;;;;2.20;1.75;;;;;;;9.11;100.00;95669.16;5036510;28;24440;-74
2022/06/01 03:00:26;;;;;;;1.90;1.67;;;;;;;9.07;100.00;95666.84;5037086;28;24420;-74
2022/06/01 03:02:55;;;;;;;2.33;1.98;;;;;;;9.08;100.00;95663.34;5036994;28;24427;-75
2022/06/01 03:05:25;;;;;;;5.15;1.80;;;;;;;9.07;100.00;95664.28;5036633;28;24435;-74
2022/06/01 03:07:53;;;;;;;2.50;1.90;;;;;;;8.94;100.00;95659.81;5036447;28;24989;-74
2022/06/01 03:10:20;;;;;;;2.47;1.98;;;;;;;8.92;100.00;95659.06;5036533;28;24442;-74
2022/06/01 03:12:46;;;;;;;5.85;2.10;;;;;;;8.96;100.00;95672.63;5036205;28;24420;-74
2022/06/01 03:15:16;;;;;;;5.80;2.40;;;;;;;8.90;100.00;95670.44;5036051;28;24845;-74
2022/06/01 03:17:44;;;;;;;2.15;1.67;;;;;;;8.92;100.00;95672.00;5036154;28;24566;-75
2022/06/01 03:20:12;;;;;;;1.90;1.50;;;;;;;8.96;100.00;95662.31;5036084;28;24511;-74
2022/06/01 03:22:42;;;;;;;1.67;1.58;;;;;;;9.03;100.00;95666.19;5035559;28;24531;-74
2022/06/01 03:25:11;;;;;;;1.90;1.70;;;;;;;9.03;100.00;95666.19;5030506;28;24435;-74
2022/06/01 03:27:38;;;;;;;2.85;1.98;;;;;;;8.95;100.00;95669.22;5032347;28;24535;-74
2022/06/01 03:30:07;;;;;;;4.40;2.50;;;;;;;8.91;100.00;95677.25;5033276;28;24426;-74
2022/06/01 03:32:35;;;;;;;2.27;1.77;;;;;;;8.99;100.00;95675.06;5033573;28;24493;-74
2022/06/01 03:35:01;;;;;;;2.00;1.80;;;;;;;9.07;100.00;95680.59;5033068;28;24436;-74
2022/06/01 03:37:27;;;;;;;3.33;2.50;;;;;;;9.02;100.00;95668.88;5033130;28;24416;-74
2022/06/01 03:39:55;;;;;;;2.67;2.00;;;;;;;9.02;100.00;95667.13;5033525;28;20756;-74
2022/06/01 03:42:22;;;;;;;3.27;1.77;;;;;;;8.92;100.00;95666.81;5033378;28;24832;-74
2022/06/01 03:47:33;;;;;;;1.95;1.60;;;;;;;9.03;100.00;95663.63;5032786;28;24590;-74
2022/06/01 03:50:00;;;;;;;2.38;1.80;;;;;;;8.89;100.00;95674.75;5033291;28;24426;-74
2022/06/01 03:52:27;;;;;;;2.67;1.95;;;;;;;8.82;100.00;95675.19;5032905;28;24428;-74
2022/06/01 03:54:53;;;;;;;1.88;1.70;;;;;;;8.84;100.00;95675.94;5032774;28;24458;-74
2022/06/01 03:57:21;;;;;;;2.95;2.13;;;;;;;8.80;100.00;95669.28;5032809;28;24486;-74
2022/06/01 03:59:48;;;;;;;2.25;1.80;;;;;;;8.66;100.00;95675.22;5033236;28;20806;-75
2022/06/01 04:02:14;;;;;;;1.98;1.77;;;;;;;8.65;100.00;95678.75;5032846;28;24841;-74
2022/06/01 04:04:40;;;;;;;3.22;1.80;;;;;;;8.64;100.00;95671.91;5032749;28;24770;-74
2022/06/01 04:07:07;;;;;;;2.22;1.88;;;;;;;8.68;100.00;95674.25;5031458;28;24455;-74
2022/06/01 04:09:33;;;;;;;4.03;2.10;;;;;;;8.77;100.00;95675.47;5032231;28;24844;-73
2022/06/01 04:12:00;;;;;;;2.60;1.83;;;;;;;8.77;100.00;95666.88;5030902;28;24511;-78
2022/06/01 04:14:28;;;;;;;2.03;1.70;;;;;;;8.55;100.00;95673.25;5021996;28;24440;-73
2022/06/01 04:16:54;;;;;;;2.28;1.88;;;;;;;8.62;100.00;95672.00;5029788;28;24431;-76
2022/06/01 04:19:21;;;;;;;1.92;1.73;;;;;;;8.62;100.00;95676.34;5031359;28;24443;-74
2022/06/01 04:21:51;;;;;;;2.45;2.05;;;;;;;8.72;100.00;95677.47;5030652;28;24451;-73
2022/06/01 04:24:20;;;;;;;3.27;2.20;;;;;;;8.94;100.00;95679.66;5031387;28;20881;-73
2022/06/01 04:26:46;;;;;;;2.53;1.88;;;;;;;9.12;100.00;95686.34;5031867;28;24471;-74
2022/06/01 04:29:15;;;;;;;3.85;2.00;;;;;;;9.22;100.00;95684.03;5031462;28;24551;-73
2022/06/01 04:31:43;;;;;;;3.30;1.80;;;;;;;9.40;100.00;95682.13;5031161;28;24431;-73
2022/06/01 04:34:09;;;;;;;3.38;1.70;;;;;;;9.55;100.00;95685.56;5023708;28;24428;-72
2022/06/01 04:36:36;;;;;;;2.85;1.75;;;;;;;9.60;100.00;95681.78;5021781;28;24442;-72
2022/06/01 04:39:02;;;;;;;1.83;1.58;;;;;;;9.67;100.00;95682.22;5030665;28;24853;-74
2022/06/01 04:41:28;;;;;;;2.30;1.50;;;;;;;9.72;100.00;95687.13;5030809;28;24494;-74
2022/06/01 04:43:55;;;;;;;3.13;2.20;;;;;;;9.72;100.00;95690.53;5031378;28;24435;-73
2022/06/01 04:46:21;;;;;;;3.25;1.73;;;;;;;9.78;100.00;95684.97;5030897;28;24428;-73
2022/06/01 04:48:49;;;;;;;2.40;1.70;;;;;;;9.87;100.00;95681.03;5030633;28;24509;-74
2022/06/01 04:51:16;;;;;;;1.90;1.70;;;;;;;9.93;100.00;95686.63;5031088;28;24443;-73
2022/06/01 04:53:44;;;;;;;2.53;1.67;;;;;;;9.91;100.00;95679.91;5031018;28;25015;-74
2022/06/01 04:56:11;;;;;;;2.25;1.67;;;;;;;10.10;100.00;95679.59;5030484;28;24510;-74
2022/06/01 04:58:38;;;;;;;1.95;1.75;;;;;;;10.34;100.00;95672.06;5030955;28;24514;-74
2022/06/01 05:01:04;;;;;;;3.00;1.58;;;;;;;10.39;100.00;95673.44;5030343;28;24432;-74
2022/06/01 05:03:31;;;;;;;2.40;1.77;;;;;;;10.53;100.00;95682.94;5030864;28;24447;-74
2022/06/01 05:05:59;;;;;;;2.60;2.00;;;;;;;10.63;100.00;95673.63;5029784;28;24529;-75
2022/06/01 05:08:25;;;;;;;2.17;1.90;;;;;;;10.81;100.00;95669.00;5030045;28;24558;-74
2022/06/01 05:10:52;;;;;;;4.38;2.45;;;;;;;11.03;100.00;95672.78;5030601;28;24447;-69
2022/06/01 05:13:19;;;;;;;6.53;2.83;;;;;;;11.23;100.00;95672.28;5030648;28;24515;-74
2022/06/01 05:15:48;;;;;;;6.60;2.20;;;;;;;11.26;100.00;95669.50;5029397;28;24486;-74
2022/06/01 05:18:15;;;;;;;3.60;2.03;;;;;;;11.24;100.00;95679.16;5030039;28;24447;-74
2022/06/01 05:20:42;;;;;;;2.15;1.90;;;;;;;11.11;100.00;95678.28;5030183;28;24931;-73
2022/06/01 05:23:10;;;;;;;2.70;2.20;;;;;;;11.08;97.65;95683.69;5030080;28;24431;-73
2022/06/01 05:25:37;;;;;;;3.03;1.65;;;;;;;10.86;96.69;95677.34;5029530;28;24443;-73
2022/06/01 05:28:03;;;;;;;2.58;2.13;;;;;;;10.89;96.74;95676.28;5030574;28;24458;-73
2022/06/01 05:30:30;;;;;;;4.03;1.70;;;;;;;10.93;95.80;95679.50;5030151;28;24428;-75
2022/06/01 05:32:56;;;;;;;3.08;1.90;;;;;;;11.12;94.73;95674.75;5032560;28;24798;-78
2022/06/01 05:35:23;;;;;;;2.28;1.83;;;;;;;11.07;95.42;95682.03;5030434;28;24444;-75
2022/06/01 05:37:49;;;;;;;2.67;1.80;;;;;;;11.21;93.74;95678.53;5031493;28;24463;-76
2022/06/01 05:40:17;;;;;;;4.17;2.07;;;;;;;11.31;92.53;95675.22;5030816;28;24432;-75
2022/06/01 05:42:44;;;;;;;3.58;2.13;;;;;;;11.47;92.84;95675.00;5031314;28;24489;-75
2022/06/01 05:45:11;;;;;;;2.38;1.77;;;;;;;11.75;92.85;95673.09;5030334;28;24512;-76
2022/06/01 05:47:37;;;;;;;4.35;2.20;;;;;;;11.74;90.20;95677.47;5029713;28;24825;-74
2022/06/01 05:50:05;;;;;;;3.00;2.17;;;;;;;11.92;91.98;95674.56;5030313;28;24472;-75
2022/06/01 05:52:31;;;;;;;3.80;2.30;;;;;;;12.05;89.32;95668.44;5030384;28;24439;-74
2022/06/01 05:54:58;;;;;;;4.20;2.53;;;;;;;12.06;88.84;95662.28;5029472;28;24436;-75
2022/06/01 05:57:26;;;;;;;6.73;2.77;;;;;;;12.09;88.57;95669.06;5029886;28;24486;-75
2022/06/01 05:59:52;;;;;;;6.75;2.50;;;;;;;12.23;89.47;95668.88;5030624;28;24802;-75
2022/06/01 06:02:18;;;;;;;10.03;3.00;;;;;;;12.28;89.11;95668.56;5030428;28;24521;-76
2022/06/01 06:04:45;;;;;;;8.15;2.63;;;;;;;12.31;89.23;95666.59;5029401;28;24443;-76
2022/06/01 06:07:11;;;;;;;5.35;2.95;;;;;;;12.40;88.91;95667.69;5029316;28;24444;-75
2022/06/01 06:09:38;;;;;;;6.05;3.20;;;;;;;12.55;89.00;95661.38;5029476;28;24455;-75
2022/06/01 06:12:05;;;;;;;8.93;2.93;;;;;;;12.60;88.54;95669.66;5029675;28;25050;-75
2022/06/01 06:14:33;;;;;;;7.50;2.30;;;;;;;12.72;87.79;95667.13;5029700;28;24439;-74
2022/06/01 06:16:59;;;;;;;15.27;2.30;;;;;;;12.79;87.88;95671.78;5029722;28;24467;-76
2022/06/01 06:19:25;;;;;;;4.60;2.22;;;;;;;13.09;85.36;95660.06;5029437;28;24459;-75
2022/06/01 06:21:52;;;;;;;5.63;2.67;;;;;;;13.16;85.65;95670.81;5029702;28;24825;-75
2022/06/01 06:24:21;;;;;;;5.17;2.10;;;;;;;13.28;85.98;95668.16;5029628;28;24444;-75
2022/06/01 06:26:48;;;;;;;5.05;2.60;;;;;;;13.48;84.66;95682.25;5029287;28;24482;-76
2022/06/01 06:29:16;;;;;;;8.23;2.33;;;;;;;13.66;84.74;95668.81;5029130;28;25058;-73
2022/06/01 06:31:44;;;;;;;10.27;2.37;;;;;;;13.83;84.37;95673.56;5029836;28;24517;-73
2022/06/01 06:34:11;;;;;;;6.53;3.10;;;;;;;14.04;82.73;95676.25;5029147;28;24435;-73
2022/06/01 06:36:37;;;;;;;21.67;3.65;;;;;;;14.15;82.05;95667.59;5029743;28;24424;-73
2022/06/01 06:39:04;;;;;;;7.13;3.42;;;;;;;14.35;81.48;95668.63;5029040;28;24790;-72
2022/06/01 06:41:30;;;;;;;8.93;3.65;;;;;;;14.51;80.60;95676.91;5029261;28;24493;-76
2022/06/01 06:43:57;;;;;;;5.25;2.55;;;;;;;14.69;80.78;95672.84;5028690;28;24436;-73
2022/06/01 06:46:24;;;;;;;5.47;2.30;;;;;;;14.99;79.74;95673.91;5029367;28;25019;-73
2022/06/01 06:48:52;;;;;;;6.70;2.90;;;;;;;15.10;79.90;95676.47;5029422;28;24830;-74
2022/06/01 06:51:20;;;;;;;5.00;2.20;;;;;;;15.42;79.29;95670.34;5029122;28;24436;-75
2022/06/01 06:53:47;;;;;;;4.03;2.28;;;;;;;15.47;77.07;95665.59;5029183;28;24447;-74
2022/06/01 06:56:16;;;;;;;2.85;2.05;;;;;;;15.71;78.72;95667.94;5028875;28;24507;-74
2022/06/01 06:58:43;;;;;;;3.30;1.93;;;;;;;16.23;76.39;95665.22;5030926;28;24436;-75
2022/06/01 07:01:09;;;;;;;3.92;2.40;;;;;;;16.61;74.39;95667.09;5033155;28;24795;-76
2022/06/01 07:03:36;;;;;;;3.53;1.88;;;;;;;16.60;72.70;95661.03;5033222;28;24806;-74
2022/06/01 07:06:11;;;;;;;8.27;2.00;;;;;;;16.83;71.31;95661.63;5032221;28;24493;-75
2022/06/01 07:08:39;;;;;;;4.18;1.92;;;;;;;16.89;71.50;95666.31;5033106;28;24542;-75
2022/06/01 07:11:06;;;;;;;3.28;2.00;;;;;;;17.36;71.44;95655.97;5017240;28;24985;-73
2022/06/01 07:13:33;;;;;;;4.63;2.03;;;;;;;17.45;68.26;95651.66;5032857;28;24561;-74
2022/06/01 07:16:02;;;;;;;6.93;1.70;;;;;;;17.61;68.69;95666.78;5032439;28;24432;-73
2022/06/01 07:18:29;;;;;;;2.03;1.40;;;;;;;18.01;66.03;95665.72;5032680;28;24519;-73
2022/06/01 07:20:55;;;;;;;5.75;2.05;;;;;;;18.12;65.21;95663.72;5032463;28;25036;-74
2022/06/01 07:23:23;;;;;;;3.50;1.55;;;;;;;18.32;63.34;95661.03;5033032;28;24806;-73
2022/06/01 07:25:49;;;;;;;3.22;1.65;;;;;;;18.50;63.40;95661.03;5032248;28;24431;-72
2022/06/01 07:28:16;;;;;;;5.53;2.08;;;;;;;18.74;62.97;95660.53;5032114;28;24444;-74
2022/06/01 07:30:42;;;;;;;4.65;1.83;;;;;;;18.84;60.01;95667.34;5032587;28;24980;-74
2022/06/01 07:33:09;;;;;;;4.87;1.83;;;;;;;18.85;61.07;95669.00;5032410;28;24439;-75
2022/06/01 07:35:35;;;;;;;3.67;1.67;;;;;;;18.76;61.01;95666.44;5031959;28;24447;-73
2022/06/01 07:43:30;;;;;;;3.53;1.45;;;;;;;18.70;57.25;95673.06;5032715;28;24446;-73
2022/06/01 07:45:57;;;;;;;1.83;1.30;;;;;;;18.77;59.73;95663.66;5031668;28;24439;-74
2022/06/01 07:48:23;;;;;;;7.97;1.73;;;;;;;18.89;57.24;95661.66;5031949;28;24995;-73
2022/06/01 07:50:51;;;;;;;3.20;1.58;;;;;;;18.75;57.80;95662.97;5031607;28;25091;-73
2022/06/01 07:53:18;;;;;;;3.95;1.80;;;;;;;18.95;56.60;95657.56;5032101;28;24474;-73
2022/06/01 07:55:44;;;;;;;2.03;1.20;;;;;;;19.08;51.90;95656.22;5031628;28;24447;-77
2022/06/01 07:58:12;;;;;;;3.00;1.20;;;;;;;19.21;48.20;95661.09;5031536;28;24466;-72
2022/06/01 08:00:39;;;;;;;3.55;1.40;;;;;;;18.79;55.63;95660.88;5029467;28;24797;-72
2022/06/01 08:03:11;;;;;;;1.83;1.15;;;;;;;18.79;42.21;95661.69;5020236;28;24463;-72
2022/06/01 08:05:38;;;;;;;2.65;0.95;;;;;;;18.75;41.15;95659.53;5031669;28;24523;-72
2022/06/01 08:08:04;;;;;;;1.15;0.90;;;;;;;19.03;40.73;95655.88;5031851;28;24490;-72
2022/06/01 08:10:31;;;;;;;1.20;0.77;;;;;;;18.90;40.28;95659.84;5031093;28;24494;-72
2022/06/01 08:13:09;;;;;;;1.70;0.90;;;;;;;19.00;39.46;95652.72;5031474;28;24435;-72
2022/06/01 08:15:40;;;;;;;4.10;1.00;;;;;;;18.70;39.50;95672.25;5031004;28;24477;-71
2022/06/01 08:18:07;;;;;;;1.73;0.80;;;;;;;17.98;39.81;95658.16;5030306;28;24436;-72
2022/06/01 08:20:33;;;;;;;6.97;1.00;;;;;;;18.03;40.14;95661.19;5031520;28;24435;-72
2022/06/01 08:23:01;;;;;;;1.92;1.13;;;;;;;18.41;39.00;95659.31;5031111;28;24432;-72
2022/06/01 08:25:28;;;;;;;2.53;0.90;;;;;;;18.25;38.80;95663.41;5029364;28;24451;-72
2022/06/01 08:27:55;;;;;;;1.55;0.90;;;;;;;18.67;38.60;95659.44;5027539;28;24444;-71
2022/06/01 08:30:24;;;;;;;2.00;1.10;;;;;;;19.03;37.81;95657.69;5026181;28;24455;-71
2022/06/01 08:32:53;;;;;;;6.43;0.90;;;;;;;19.29;37.85;95661.16;5021819;28;25050;-72
2022/06/01 08:35:28;;;;;;;1.52;0.90;;;;;;;19.57;37.63;95658.41;5030646;28;24443;-70
2022/06/01 08:37:55;;;;;;;2.55;0.98;;;;;;;19.86;37.61;95662.53;5027044;28;25067;-71
2022/06/01 08:40:25;;;;;;;2.25;0.90;;;;;;;19.71;37.36;95683.31;5031370;28;24435;-71
2022/06/01 08:42:57;;;;;;;1.60;0.70;;;;;;;19.63;37.71;95675.38;5031478;28;24432;-71
2022/06/01 08:45:26;;;;;;;1.15;0.75;;;;;;;19.89;36.67;95678.00;5030480;28;24797;-71
2022/06/01 08:47:53;;;;;;;2.88;1.00;;;;;;;19.90;38.13;95685.72;5030829;28;24439;-74
2022/06/01 08:50:25;;;;;;;1.70;0.85;;;;;;;19.83;36.89;95679.44;5030463;28;24538;-73
2022/06/01 08:52:52;;;;;;;2.13;0.98;;;;;;;19.45;36.84;95675.38;5030877;28;24920;-71
2022/06/01 08:55:18;;;;;;;2.65;1.02;;;;;;;19.94;36.93;95675.72;5030195;28;25008;-70
2022/06/01 08:57:52;;;;;;;3.05;0.73;;;;;;;20.00;35.49;95683.00;5030831;28;24486;-72
2022/06/01 09:00:21;;;;;;;12.68;0.90;;;;;;;20.30;34.45;95694.81;5030617;28;24434;-73
2022/06/01 09:02:59;;;;;;;1.25;0.70;;;;;;;20.13;34.30;95685.19;5030783;28;24439;-73
2022/06/01 09:05:37;;;;;;;5.55;0.93;;;;;;;20.39;35.13;95685.94;5030542;28;24432;-73
2022/06/01 09:08:10;;;;;;;1.73;0.77;;;;;;;20.69;34.46;95691.66;5030633;28;24793;-73
2022/06/01 09:10:50;;;;;;;1.60;0.80;;;;;;;20.27;34.81;95689.84;5015627;28;24956;-74
2022/06/01 09:13:23;;;;;;;2.63;0.80;;;;;;;20.12;36.58;95694.06;5030130;28;24443;-73
2022/06/01 09:15:54;;;;;;;16.17;1.00;;;;;;;19.79;37.55;95699.13;5029824;28;24505;-73
2022/06/01 09:18:24;;;;;;;2.00;0.73;;;;;;;20.00;37.48;95696.97;5030635;28;24528;-73
2022/06/01 09:23:35;;;;;;;2.25;0.70;;;;;;;19.79;36.34;95696.50;5029797;28;24842;-76
2022/06/01 09:26:03;;;;;;;1.35;0.75;;;;;;;19.67;36.23;95700.38;5030291;28;24471;-74
2022/06/01 09:28:31;;;;;;;3.35;0.85;;;;;;;19.85;36.13;95695.06;5030524;28;24505;-74
2022/06/01 09:31:02;;;;;;;1.23;0.75;;;;;;;19.83;35.64;95713.59;5030256;28;24456;-74
2022/06/01 09:33:32;;;;;;;1.80;0.80;;;;;;;20.05;34.88;95713.06;5030343;28;24436;-73
2022/06/01 09:36:15;;;;;;;2.53;0.73;;;;;;;20.42;35.90;95719.00;5029613;28;25007;-74
2022/06/01 09:38:47;;;;;;;2.13;1.00;;;;;;;20.25;34.90;95718.13;5029775;28;25004;-74
2022/06/01 09:41:25;;;;;;;1.30;0.80;;;;;;;20.62;35.10;95714.38;5030527;28;24463;-73
2022/06/01 09:43:56;;;;;;;1.85;0.90;;;;;;;21.01;34.75;95712.81;5030518;28;24439;-73
2022/06/01 09:46:33;;;;;;;1.63;0.87;;;;;;;21.06;34.47;95699.13;5030542;28;24478;-74
2022/06/01 09:49:03;;;;;;;1.77;1.10;;;;;;;21.16;33.01;95714.81;5029710;28;25068;-73
2022/06/01 09:51:32;;;;;;;1.55;1.08;;;;;;;21.13;32.99;95717.75;5031362;28;24439;-73
2022/06/01 09:54:11;;;;;;;2.83;0.97;;;;;;;21.31;33.37;95705.25;5029791;28;24489;-74
2022/06/01 09:56:45;;;;;;;0.70;0.60;;;;;;;21.37;33.20;95715.19;5030289;28;24443;-73
2022/06/01 10:07:43;;;;;;;3.40;0.95;;;;;;;21.08;32.94;95709.53;5030197;28;24614;-73
2022/06/01 10:10:22;;;;;;;3.55;0.85;;;;;;;21.22;33.46;95709.72;5030125;28;24818;-73
2022/06/01 10:12:54;;;;;;;1.55;0.70;;;;;;;20.74;33.57;95702.56;5030128;28;24494;-73
2022/06/01 10:15:30;;;;;;;1.42;0.85;;;;;;;20.76;33.82;95704.03;5029895;28;24524;-74
2022/06/01 10:18:01;;;;;;;4.43;0.90;;;;;;;20.67;34.33;95712.06;5029769;28;24588;-73
2022/06/01 10:20:33;;;;;;;1.98;0.88;;;;;;;21.10;33.19;95715.44;5029920;28;24849;-74
2022/06/01 10:23:05;;;;;;;1.50;0.70;;;;;;;20.87;32.76;95718.69;5029932;28;24436;-74
2022/06/01 10:25:38;;;;;;;1.80;0.85;;;;;;;21.33;32.73;95713.88;5029983;28;24436;-74
2022/06/01 10:28:07;;;;;;;4.20;1.17;;;;;;;21.02;32.45;95711.84;5029820;28;24439;-73
2022/06/01 10:30:37;;;;;;;2.45;1.08;;;;;;;21.26;30.69;95705.75;5029386;28;24452;-73
2022/06/01 10:33:09;;;;;;;1.30;0.70;;;;;;;21.20;31.66;95703.75;5030282;28;24432;-73
2022/06/01 10:35:41;;;;;;;3.53;1.30;;;;;;;20.97;32.38;95719.38;5033639;28;24858;-73
2022/06/01 10:38:15;;;;;;;2.78;0.80;;;;;;;20.35;34.16;95712.72;5033848;28;24853;-69
2022/06/01 10:40:46;;;;;;;1.23;0.70;;;;;;;20.31;34.01;95715.66;5014049;28;24945;-74
2022/06/01 10:43:24;;;;;;;2.25;0.90;;;;;;;20.22;35.72;95713.19;5021550;28;24489;-73
2022/06/01 10:45:54;;;;;;;1.40;0.90;;;;;;;20.18;35.73;95712.66;5033288;28;24497;-73
2022/06/01 10:48:26;;;;;;;2.00;0.80;;;;;;;20.49;34.71;95709.50;5033454;28;24806;-73
2022/06/01 10:51:04;;;;;;;2.55;1.00;;;;;;;20.80;34.07;95696.63;5017860;28;24478;-73
2022/06/01 10:53:48;;;;;;;3.77;1.00;;;;;;;20.53;32.48;95708.22;5033868;28;24582;-73
2022/06/01 10:56:18;;;;;;;1.80;1.08;;;;;;;20.68;33.57;95714.53;5033348;28;24532;-73
2022/06/01 10:58:45;;;;;;;4.50;1.17;;;;;;;21.10;33.34;95702.28;5033317;28;24837;-73
2022/06/01 11:01:15;;;;;;;1.73;0.93;;;;;;;20.72;33.33;95705.31;5033650;28;24428;-73
2022/06/01 11:04:06;;;;;;;3.60;1.10;;;;;;;20.90;34.33;95709.66;5033223;28;24840;-73
2022/06/01 11:06:52;;;;;;;2.50;0.90;;;;;;;20.57;35.36;95698.22;5033610;28;24438;-73
2022/06/01 11:09:25;;;;;;;2.90;0.90;;;;;;;20.35;35.63;95696.94;5033327;28;24442;-73
2022/06/01 11:12:01;;;;;;;1.27;0.70;;;;;;;20.41;36.35;95707.66;5033385;28;24526;-73
2022/06/01 11:14:45;;;;;;;2.60;1.10;;;;;;;20.81;35.32;95695.66;5032959;28;24439;-73
2022/06/01 11:17:23;;;;;;;1.33;0.75;;;;;;;20.74;34.07;95694.66;5033117;28;24525;-73
2022/06/01 11:20:03;;;;;;;2.10;0.90;;;;;;;20.72;34.89;95699.25;5033201;28;24462;-73
2022/06/01 11:22:50;;;;;;;3.30;0.98;;;;;;;20.30;36.16;95698.25;5017203;28;24519;-73
2022/06/01 11:25:21;;;;;;;3.60;1.10;;;;;;;19.94;36.76;95697.56;5032777;28;24446;-72
2022/06/01 11:28:09;;;;;;;2.33;1.10;;;;;;;20.17;37.13;95697.88;5032794;28;24444;-73
2022/06/01 11:30:42;;;;;;;1.58;0.90;;;;;;;19.90;38.05;95698.88;5032543;28;25025;-74
2022/06/01 11:33:15;;;;;;;3.03;1.20;;;;;;;19.77;38.54;95688.78;5033029;28;24498;-74
2022/06/01 11:35:45;;;;;;;2.80;1.10;;;;;;;19.85;39.73;95693.25;5032126;28;24486;-75
2022/06/01 11:38:18;;;;;;;1.90;1.00;;;;;;;19.80;39.84;95695.50;5032834;28;24436;-75
2022/06/01 11:40:50;;;;;;;3.85;1.33;;;;;;;20.03;39.27;95691.41;5033484;28;24829;-74
2022/06/01 11:43:26;;;;;;;2.13;1.20;;;;;;;20.34;39.09;95695.31;5031965;28;24440;-74
2022/06/01 11:45:55;;;;;;;2.00;1.10;;;;;;;20.03;38.79;95699.28;5031523;28;24436;-74
2022/06/01 11:48:26;;;;;;;1.05;0.90;;;;;;;19.99;38.58;95692.69;5032740;28;24443;-72
2022/06/01 11:51:08;;;;;;;1.73;1.30;;;;;;;19.77;38.63;95687.97;5033062;28;25019;-72
2022/06/01 11:53:44;;;;;;;1.73;0.95;;;;;;;19.63;39.37;95693.78;5032823;28;25126;-72
2022/06/01 11:56:22;;;;;;;2.80;1.27;;;;;;;19.55;40.04;95686.63;5033112;28;24447;-75
2022/06/01 11:59:04;;;;;;;2.55;1.17;;;;;;;20.02;39.39;95686.28;5033726;28;24541;-75
2022/06/01 12:01:37;;;;;;;1.83;1.05;;;;;;;20.39;39.09;95688.56;5031862;28;24837;-74
2022/06/01 12:04:17;;;;;;;1.10;0.87;;;;;;;20.63;38.48;95681.81;5032180;28;24806;-74
2022/06/01 12:06:49;;;;;;;2.10;1.20;;;;;;;20.79;39.55;95689.72;5032643;28;24458;-74
2022/06/01 12:09:30;;;;;;;2.08;1.20;;;;;;;21.14;37.57;95685.19;5032565;28;24435;-74